Time;durP1;ratioP1;P1;durP2;ratioP2;P2;SDS_P1;SDS_P2;PMS_P1;PMS_P2;Temp;Humidity;BMP_temperature;BMP_pressure;BME280_temperature;BME280_humidity;BME280_pressure;Samples;Min_cycle;Max_cycle;Signal;HPM_P1;HPM_P2
2024/03/31 00:01:06;;;;;;;14.40;12.80;;;;;;;8.72;100.00;99956.63;5089728;28;20039;-39
2024/03/31 00:03:32;;;;;;;14.10;12.67;;;;;;;8.72;100.00;99953.94;5090042;28;20032;-39
2024/03/31 00:05:58;;;;;;;14.68;13.20;;;;;;;8.75;100.00;99953.47;5080786;28;20036;-39
2024/03/31 00:08:23;;;;;;;15.02;13.43;;;;;;;8.77;100.00;99949.47;5076378;28;20081;-39
2024/03/31 00:10:58;;;;;;;15.33;13.63;;;;;;;8.79;100.00;99951.13;5076345;28;20402;-39
2024/03/31 00:13:23;;;;;;;17.38;15.20;;;;;;;8.72;100.00;99943.16;5075657;28;20025;-38
2024/03/31 00:15:49;;;;;;;16.87;15.10;;;;;;;8.73;100.00;99931.31;5075709;28;20029;-39
2024/03/31 00:18:14;;;;;;;17.45;15.63;;;;;;;8.81;100.00;99938.19;5076453;28;20036;-39
2024/03/31 00:20:40;;;;;;;17.00;15.20;;;;;;;8.77;100.00;99927.88;5076246;28;20037;-39
2024/03/31 00:23:05;;;;;;;15.67;14.07;;;;;;;8.79;100.00;99930.38;5076158;28;20028;-39
2024/03/31 00:25:30;;;;;;;16.87;15.13;;;;;;;8.79;100.00;99933.06;5075578;28;20450;-39
2024/03/31 00:27:55;;;;;;;17.03;15.23;;;;;;;8.77;100.00;99910.91;5075440;28;20487;-39
2024/03/31 00:30:21;;;;;;;18.43;16.53;;;;;;;8.63;100.00;99910.38;5075719;28;20472;-39
2024/03/31 00:32:46;;;;;;;19.25;16.30;;;;;;;8.50;100.00;99908.81;5075672;28;20035;-39
2024/03/31 00:35:12;;;;;;;18.57;16.57;;;;;;;8.48;100.00;99902.81;5075878;28;20111;-38
2024/03/31 00:37:37;;;;;;;19.47;17.37;;;;;;;8.42;100.00;99919.94;5075235;28;20123;-38
2024/03/31 00:40:03;;;;;;;18.37;16.37;;;;;;;8.42;100.00;99922.63;5076045;28;20079;-39
2024/03/31 00:42:28;;;;;;;19.38;16.35;;;;;;;8.41;100.00;99922.88;5075232;28;20408;-38
2024/03/31 00:44:53;;;;;;;22.27;18.93;;;;;;;8.34;100.00;99928.38;5075388;28;20071;-39
2024/03/31 00:47:18;;;;;;;19.87;17.50;;;;;;;8.25;100.00;99916.34;5075093;28;20056;-39
2024/03/31 00:49:44;;;;;;;21.13;18.53;;;;;;;8.25;100.00;99927.94;5076188;28;20075;-39
2024/03/31 00:52:09;;;;;;;20.83;17.83;;;;;;;8.25;100.00;99924.44;5074935;28;20032;-39
2024/03/31 00:54:41;;;;;;;22.40;17.80;;;;;;;8.21;100.00;99923.25;5075504;28;20048;-39
2024/03/31 00:57:06;;;;;;;21.00;18.45;;;;;;;8.10;100.00;99913.31;5075114;28;20028;-39
2024/03/31 00:59:32;;;;;;;21.27;18.33;;;;;;;8.24;100.00;99925.47;5075188;28;20021;-39
2024/03/31 01:01:57;;;;;;;20.60;17.80;;;;;;;8.19;100.00;99925.34;5074872;28;20029;-39
2024/03/31 01:04:22;;;;;;;19.83;17.53;;;;;;;8.23;100.00;99916.56;5075578;28;20032;-39
2024/03/31 01:06:48;;;;;;;18.97;16.70;;;;;;;8.26;100.00;99931.44;5075062;28;20059;-39
2024/03/31 01:09:15;;;;;;;21.90;18.85;;;;;;;8.16;100.00;99939.31;5075506;28;20564;-39
2024/03/31 01:11:40;;;;;;;21.35;17.92;;;;;;;8.16;100.00;99950.91;5074517;28;20025;-39
2024/03/31 01:14:06;;;;;;;21.27;17.53;;;;;;;8.14;100.00;99944.09;5074530;28;20033;-39
2024/03/31 01:16:31;;;;;;;20.15;17.80;;;;;;;8.07;100.00;99949.63;5074012;28;20111;-39
2024/03/31 01:18:57;;;;;;;19.57;17.37;;;;;;;8.02;100.00;99940.63;5074387;28;20060;-39
2024/03/31 01:21:24;;;;;;;20.73;18.33;;;;;;;8.05;100.00;99951.72;5074397;28;20056;-39
2024/03/31 01:24:01;;;;;;;18.15;15.98;;;;;;;8.11;100.00;99955.38;5075229;28;20411;-39
2024/03/31 01:26:27;;;;;;;18.00;16.10;;;;;;;8.09;100.00;99960.16;5074689;28;20485;-39
2024/03/31 01:28:52;;;;;;;;;;;;;;;8.20;100.00;99953.94;5074774;28;20111;-39
2024/03/31 01:31:18;;;;;;;18.45;15.75;;;;;;;8.06;100.00;99955.25;5074169;28;19956;-39
2024/03/31 01:33:44;;;;;;;18.40;16.42;;;;;;;8.15;100.00;99956.50;5074488;28;20024;-39
2024/03/31 01:36:09;;;;;;;18.65;16.30;;;;;;;8.14;100.00;99947.63;5074379;28;20383;-39
2024/03/31 01:38:34;;;;;;;17.03;14.90;;;;;;;8.19;100.00;99939.63;5074640;28;20461;-39
2024/03/31 01:41:00;;;;;;;17.97;15.77;;;;;;;8.24;100.00;99933.53;5074587;28;20387;-39
2024/03/31 01:43:25;;;;;;;17.13;14.93;;;;;;;8.20;100.00;99913.56;5073926;28;20102;-38
2024/03/31 01:45:51;;;;;;;17.27;15.47;;;;;;;8.16;100.00;99915.09;5074194;28;20028;-39
2024/03/31 01:48:17;;;;;;;;;;;;;;;8.27;100.00;99919.63;5075394;28;20262;-39
2024/03/31 01:50:42;;;;;;;17.08;15.25;;;;;;;8.13;100.00;99907.47;5074833;28;20252;-39
2024/03/31 01:53:08;;;;;;;16.77;14.97;;;;;;;8.10;100.00;99914.16;5073846;28;20029;-39
2024/03/31 01:55:33;;;;;;;16.95;15.15;;;;;;;8.07;100.00;99909.25;5074380;28;20024;-39
2024/03/31 01:57:59;;;;;;;15.90;14.13;;;;;;;8.16;100.00;99920.47;5074284;28;20505;-39
2024/03/31 02:00:24;;;;;;;15.10;13.65;;;;;;;8.12;100.00;99919.31;5073969;28;20127;-39
2024/03/31 02:02:49;;;;;;;15.20;13.60;;;;;;;8.22;100.00;99927.59;5073852;28;20028;-39
2024/03/31 02:05:15;;;;;;;16.30;14.60;;;;;;;8.19;100.00;99925.34;5074452;28;20028;-39
2024/03/31 02:07:41;;;;;;;15.75;14.07;;;;;;;8.17;100.00;99922.91;5074339;28;20029;-39
2024/03/31 02:10:06;;;;;;;15.27;13.68;;;;;;;8.20;100.00;99940.47;5073776;28;20029;-39
2024/03/31 02:12:35;;;;;;;14.98;13.48;;;;;;;8.18;100.00;99938.00;5073743;28;20035;-39
2024/03/31 02:15:00;;;;;;;15.10;13.57;;;;;;;8.19;100.00;99942.34;5074175;28;20353;-39
2024/03/31 02:17:26;;;;;;;14.40;12.93;;;;;;;8.29;100.00;99946.31;5073655;28;20040;-39
2024/03/31 02:19:51;;;;;;;13.55;12.25;;;;;;;8.31;100.00;99945.03;5073900;28;20051;-39
2024/03/31 02:22:17;;;;;;;13.40;12.07;;;;;;;8.24;100.00;99920.06;5073836;28;20427;-39
2024/03/31 02:24:43;;;;;;;13.25;11.95;;;;;;;8.19;100.00;99911.91;5073788;28;20437;-39
2024/03/31 02:27:09;;;;;;;12.90;11.60;;;;;;;8.25;100.00;99921.75;5073522;28;20107;-39
2024/03/31 02:29:35;;;;;;;13.10;11.80;;;;;;;8.21;100.00;99918.69;5073285;28;20544;-39
2024/03/31 02:32:00;;;;;;;;;;;;;;;8.25;100.00;99922.56;5073545;28;20461;-40
2024/03/31 02:34:25;;;;;;;13.27;11.97;;;;;;;8.14;100.00;99914.47;5073174;28;19965;-39
2024/03/31 02:36:51;;;;;;;13.30;12.00;;;;;;;8.14;100.00;99917.19;5073478;28;20750;-39
2024/03/31 02:39:16;;;;;;;13.80;12.40;;;;;;;8.09;100.00;99914.38;5073740;28;20048;-39
2024/03/31 02:41:41;;;;;;;13.23;11.93;;;;;;;8.06;100.00;99921.06;5073715;28;20496;-39
2024/03/31 02:44:07;;;;;;;13.60;12.30;;;;;;;8.10;100.00;99924.09;5073434;28;20504;-39
2024/03/31 02:46:32;;;;;;;13.73;12.30;;;;;;;8.09;100.00;99925.16;5072979;28;20093;-39
2024/03/31 02:48:58;;;;;;;14.02;12.52;;;;;;;8.06;100.00;99920.25;5073354;28;20304;-39
2024/03/31 02:51:23;;;;;;;13.80;12.50;;;;;;;8.13;100.00;99921.75;5073844;28;20031;-39
2024/03/31 02:53:48;;;;;;;14.53;13.10;;;;;;;8.05;100.00;99918.59;5073753;28;20068;-39
2024/03/31 02:56:13;;;;;;;14.37;12.97;;;;;;;8.06;100.00;99915.69;5073313;28;20024;-39
2024/03/31 02:58:39;;;;;;;15.20;13.60;;;;;;;7.97;100.00;99895.56;5073244;28;20044;-39
2024/03/31 03:01:06;;;;;;;15.77;14.17;;;;;;;8.03;100.00;99900.00;5073436;28;20476;-39
2024/03/31 03:03:31;;;;;;;14.68;13.18;;;;;;;7.90;100.00;99878.72;5073474;28;20033;-39
2024/03/31 03:05:57;;;;;;;16.05;14.35;;;;;;;7.96;100.00;99889.38;5073194;28;20551;-39
2024/03/31 03:08:22;;;;;;;15.10;13.50;;;;;;;7.94;100.00;99880.69;5072178;28;20051;-39
2024/03/31 03:10:52;;;;;;;14.10;12.73;;;;;;;7.94;100.00;99875.31;5073943;28;20039;-39
2024/03/31 03:13:17;;;;;;;13.90;12.48;;;;;;;7.95;100.00;99873.44;5072701;28;20021;-39
2024/03/31 03:15:44;;;;;;;15.80;13.83;;;;;;;7.90;100.00;99868.75;5073656;28;20105;-39
2024/03/31 03:18:09;;;;;;;15.43;13.82;;;;;;;7.89;100.00;99867.13;5072970;28;20032;-39
2024/03/31 03:20:37;;;;;;;14.17;12.70;;;;;;;7.90;100.00;99873.31;5073244;28;20526;-39
2024/03/31 03:23:02;;;;;;;15.95;14.13;;;;;;;7.87;100.00;99860.34;5071684;28;20048;-39
2024/03/31 03:25:28;;;;;;;14.80;13.30;;;;;;;7.93;100.00;99859.41;5073213;28;20038;-39
2024/03/31 03:27:53;;;;;;;14.30;12.83;;;;;;;7.86;100.00;99846.09;5073194;28;20031;-39
2024/03/31 03:30:18;;;;;;;14.13;12.70;;;;;;;7.83;100.00;99846.53;5073698;28;20032;-39
2024/03/31 03:32:43;;;;;;;13.60;12.20;;;;;;;7.91;100.00;99838.13;5072866;28;20381;-39
2024/03/31 03:35:09;;;;;;;12.57;11.27;;;;;;;7.93;100.00;99851.31;5073314;28;20024;-39
2024/03/31 03:37:34;;;;;;;13.20;11.80;;;;;;;7.97;100.00;99857.88;5072847;28;20452;-39
2024/03/31 03:39:59;;;;;;;13.30;12.00;;;;;;;7.96;100.00;99867.00;5072619;28;20108;-39
2024/03/31 03:42:25;;;;;;;13.67;11.63;;;;;;;7.96;100.00;99875.91;5076037;28;20031;-39
2024/03/31 03:44:50;;;;;;;12.27;11.07;;;;;;;7.94;100.00;99872.63;5076293;28;20477;-39
2024/03/31 03:47:15;;;;;;;12.20;10.93;;;;;;;7.99;100.00;99883.50;5076164;28;20465;-39
2024/03/31 03:49:41;;;;;;;12.10;10.73;;;;;;;8.03;100.00;99883.03;5076791;28;20025;-39
2024/03/31 03:52:06;;;;;;;11.75;10.55;;;;;;;8.07;100.00;99889.56;5076663;28;20035;-39
2024/03/31 03:54:31;;;;;;;10.70;9.60;;;;;;;8.09;100.00;99899.03;5076604;28;20036;-39
2024/03/31 03:56:57;;;;;;;13.03;10.73;;;;;;;8.07;100.00;99893.09;5076303;28;20028;-39
2024/03/31 03:59:22;;;;;;;12.43;10.00;;;;;;;8.08;100.00;99885.81;5076955;28;20028;-39
2024/03/31 04:01:47;;;;;;;10.60;9.60;;;;;;;8.11;100.00;99885.34;5076542;28;20028;-39
2024/03/31 04:04:12;;;;;;;10.17;9.17;;;;;;;8.08;100.00;99885.81;5076765;28;20082;-39
2024/03/31 04:06:38;;;;;;;10.30;8.47;;;;;;;8.14;100.00;99893.75;5076167;28;20384;-39
2024/03/31 04:09:03;;;;;;;10.20;9.20;;;;;;;8.14;100.00;99879.47;5075834;28;20028;-39
2024/03/31 04:11:28;;;;;;;10.73;9.70;;;;;;;8.12;100.00;99866.25;5076090;28;20032;-39
2024/03/31 04:13:54;;;;;;;10.27;9.27;;;;;;;8.01;100.00;99864.44;5076346;28;20028;-39
2024/03/31 04:16:19;;;;;;;10.00;8.97;;;;;;;8.06;100.00;99852.94;5076004;28;20029;-39
2024/03/31 04:18:44;;;;;;;19.33;10.73;;;;;;;8.03;100.00;99853.41;5076260;28;20053;-39
2024/03/31 04:21:10;;;;;;;10.47;9.37;;;;;;;8.04;100.00;99847.78;5075830;28;20032;-39
2024/03/31 04:23:38;;;;;;;9.80;8.88;;;;;;;7.98;100.00;99828.00;5075904;28;20473;-39
2024/03/31 04:26:03;;;;;;;10.23;9.07;;;;;;;8.09;100.00;99850.56;5075666;28;20039;-39
2024/03/31 04:28:29;;;;;;;9.70;8.73;;;;;;;8.09;100.00;99850.56;5075824;28;20024;-39
2024/03/31 04:30:54;;;;;;;9.77;8.77;;;;;;;8.05;100.00;99851.28;5076016;28;20107;-39
2024/03/31 04:33:19;;;;;;;9.40;8.43;;;;;;;8.05;100.00;99837.81;5075539;28;20376;-39
2024/03/31 04:35:45;;;;;;;10.60;9.53;;;;;;;7.98;100.00;99851.44;5075253;28;20107;-39
2024/03/31 04:38:10;;;;;;;10.13;9.13;;;;;;;8.03;100.00;99839.94;5075185;28;20338;-39
2024/03/31 04:40:35;;;;;;;10.07;9.07;;;;;;;7.99;100.00;99843.09;5076019;28;20449;-39
2024/03/31 04:43:01;;;;;;;10.07;9.07;;;;;;;7.98;100.00;99838.78;5075393;28;20028;-39
2024/03/31 04:45:28;;;;;;;11.18;9.27;;;;;;;7.95;100.00;99831.19;5075393;28;20036;-39
2024/03/31 04:47:53;;;;;;;10.15;9.07;;;;;;;7.93;100.00;99829.78;5075507;28;20055;-39
2024/03/31 04:50:19;;;;;;;11.13;9.97;;;;;;;7.87;100.00;99819.97;5076144;28;20041;-39
2024/03/31 04:52:44;;;;;;;11.30;10.10;;;;;;;7.95;100.00;99825.81;5075142;28;20291;-39
2024/03/31 04:55:10;;;;;;;12.02;10.82;;;;;;;7.86;100.00;99819.16;5076351;28;20306;-39
2024/03/31 04:57:35;;;;;;;11.43;10.25;;;;;;;7.89;100.00;99821.34;5075397;28;20043;-39
2024/03/31 05:00:01;;;;;;;12.33;10.80;;;;;;;7.82;100.00;99801.84;5075178;28;20051;-39
2024/03/31 05:02:26;;;;;;;11.23;10.02;;;;;;;7.89;100.00;99799.81;5074796;28;20047;-39
2024/03/31 05:04:51;;;;;;;12.13;10.87;;;;;;;7.76;100.00;99792.03;5075059;28;20086;-39
2024/03/31 05:07:18;;;;;;;12.00;10.70;;;;;;;7.82;100.00;99787.59;5074982;28;20029;-39
2024/03/31 05:09:43;;;;;;;11.73;10.52;;;;;;;7.84;100.00;99780.88;5075217;28;20100;-38
2024/03/31 05:12:08;;;;;;;15.00;12.30;;;;;;;7.71;100.00;99778.47;5075175;28;20492;-37
2024/03/31 05:14:34;;;;;;;12.20;10.40;;;;;;;7.82;100.00;99783.00;5074581;28;20302;-38
2024/03/31 05:16:59;;;;;;;14.10;11.47;;;;;;;7.76;100.00;99781.28;5074539;28;20036;-38
2024/03/31 05:19:24;;;;;;;13.75;11.52;;;;;;;7.71;100.00;99784.69;5075056;28;20021;-38
2024/03/31 05:21:50;;;;;;;13.70;11.40;;;;;;;7.75;100.00;99793.06;5074667;28;20036;-39
2024/03/31 05:24:15;;;;;;;13.20;11.80;;;;;;;7.79;100.00;99807.69;5074330;28;20028;-37
2024/03/31 05:26:40;;;;;;;14.93;11.43;;;;;;;7.81;100.00;99804.75;5075191;28;20039;-38
2024/03/31 05:29:06;;;;;;;13.50;12.10;;;;;;;7.85;100.00;99804.03;5075062;28;20021;-38
2024/03/31 05:31:31;;;;;;;13.05;11.65;;;;;;;7.83;100.00;99808.88;5074272;28;20028;-39
2024/03/31 05:33:57;;;;;;;14.32;12.85;;;;;;;7.89;100.00;99815.97;5074383;28;20078;-38
2024/03/31 05:36:23;;;;;;;;;;;;;;;7.93;100.00;99809.06;5074820;28;20021;-39
2024/03/31 05:38:48;;;;;;;15.53;13.17;;;;;;;7.83;100.00;99803.47;5075227;28;19934;-39
2024/03/31 05:41:13;;;;;;;15.57;12.67;;;;;;;7.88;100.00;99810.84;5074590;28;20086;-39
2024/03/31 05:43:39;;;;;;;13.77;11.98;;;;;;;7.91;100.00;99805.00;5074575;28;20032;-39
2024/03/31 05:46:04;;;;;;;14.13;12.63;;;;;;;7.90;100.00;99798.75;5074037;28;20112;-39
2024/03/31 05:48:30;;;;;;;14.80;13.23;;;;;;;7.88;100.00;99798.19;5073955;28;20119;-39
2024/03/31 05:50:55;;;;;;;15.90;12.77;;;;;;;7.92;100.00;99802.06;5074460;28;20472;-39
2024/03/31 05:53:22;;;;;;;16.33;13.37;;;;;;;7.97;100.00;99802.16;5073937;28;20404;-39
2024/03/31 05:55:47;;;;;;;14.32;12.82;;;;;;;7.92;100.00;99801.25;5074308;28;20090;-39
2024/03/31 05:58:12;;;;;;;14.67;12.93;;;;;;;7.94;100.00;99797.25;5073782;28;20024;-39
2024/03/31 06:00:39;;;;;;;15.73;13.67;;;;;;;7.88;100.00;99790.13;5073837;28;20029;-38
2024/03/31 06:03:05;;;;;;;15.95;14.27;;;;;;;7.93;100.00;99795.59;5073683;28;20033;-39
2024/03/31 06:05:30;;;;;;;15.67;13.83;;;;;;;7.95;100.00;99790.81;5073577;28;20408;-39
2024/03/31 06:07:55;;;;;;;19.30;16.43;;;;;;;7.93;100.00;99775.94;5074132;28;20271;-39
2024/03/31 06:10:20;;;;;;;15.67;13.83;;;;;;;7.96;100.00;99780.88;5074177;28;20029;-39
2024/03/31 06:12:46;;;;;;;15.93;14.20;;;;;;;8.04;100.00;99783.16;5073389;28;20021;-39
2024/03/31 06:15:11;;;;;;;16.77;15.07;;;;;;;8.05;100.00;99778.59;5073372;28;20035;-39
2024/03/31 06:17:39;;;;;;;17.27;15.47;;;;;;;8.07;100.00;99779.19;5073317;28;20324;-39
2024/03/31 06:20:06;;;;;;;16.63;14.90;;;;;;;8.12;100.00;99785.47;5073879;28;20031;-39
2024/03/31 06:22:31;;;;;;;17.83;15.63;;;;;;;8.17;100.00;99788.25;5073483;28;20052;-39
2024/03/31 06:24:56;;;;;;;18.50;16.60;;;;;;;8.09;100.00;99782.44;5073365;28;20032;-39
2024/03/31 06:27:22;;;;;;;19.20;16.70;;;;;;;8.11;100.00;99785.72;5073584;28;20031;-39
2024/03/31 06:29:52;;;;;;;17.77;15.87;;;;;;;8.16;100.00;99777.75;5074346;28;20275;-39
2024/03/31 06:32:17;;;;;;;17.67;15.75;;;;;;;8.22;100.00;99780.28;5074558;28;20373;-39
2024/03/31 06:34:44;;;;;;;18.98;16.92;;;;;;;8.19;100.00;99764.59;5073712;28;20024;-39
2024/03/31 06:37:09;;;;;;;18.77;16.77;;;;;;;8.30;100.00;99768.31;5074155;28;20436;-39
2024/03/31 06:39:35;;;;;;;17.77;15.87;;;;;;;8.37;100.00;99769.00;5073509;28;20112;-39
2024/03/31 06:42:00;;;;;;;19.10;17.10;;;;;;;8.33;100.00;99765.13;5073633;28;20035;-38
2024/03/31 06:44:25;;;;;;;19.13;17.13;;;;;;;8.40;100.00;99771.22;5073681;28;20062;-39
2024/03/31 06:46:51;;;;;;;19.63;17.40;;;;;;;8.54;100.00;99774.41;5073129;28;20063;-39
2024/03/31 06:49:16;;;;;;;18.87;16.90;;;;;;;8.58;100.00;99770.16;5073650;28;20520;-39
2024/03/31 06:51:41;;;;;;;18.17;16.27;;;;;;;8.67;100.00;99770.56;5073299;28;20457;-39
2024/03/31 06:54:07;;;;;;;18.57;16.30;;;;;;;8.68;100.00;99781.09;5073432;28;20048;-39
2024/03/31 06:56:32;;;;;;;18.53;16.60;;;;;;;8.71;100.00;99777.09;5073993;28;20032;-39
2024/03/31 06:58:57;;;;;;;17.97;16.20;;;;;;;8.76;100.00;99769.91;5073818;28;20050;-39
2024/03/31 07:01:23;;;;;;;18.03;16.20;;;;;;;8.79;100.00;99760.53;5073284;28;20029;-39
2024/03/31 07:03:48;;;;;;;17.90;16.07;;;;;;;8.79;100.00;99767.81;5073707;28;20081;-39
2024/03/31 07:06:13;;;;;;;18.30;16.50;;;;;;;8.77;100.00;99776.13;5073480;28;20033;-39
2024/03/31 07:08:39;;;;;;;18.03;15.93;;;;;;;8.75;100.00;99759.38;5073432;28;20032;-39
2024/03/31 07:11:04;;;;;;;20.57;17.57;;;;;;;8.82;100.00;99768.13;5072871;28;20828;-39
2024/03/31 07:13:30;;;;;;;18.27;16.47;;;;;;;8.84;100.00;99755.22;5073590;28;20492;-39
2024/03/31 07:15:55;;;;;;;19.98;17.88;;;;;;;8.78;100.00;99764.28;5074840;28;20036;-39
2024/03/31 07:18:21;;;;;;;18.30;16.23;;;;;;;8.89;100.00;99768.78;5077395;28;20457;-39
2024/03/31 07:20:46;;;;;;;19.30;17.17;;;;;;;8.89;100.00;99760.69;5077363;28;20432;-39
2024/03/31 07:23:11;;;;;;;18.33;16.33;;;;;;;8.98;100.00;99761.91;5076982;28;20029;-38
2024/03/31 07:25:37;;;;;;;19.60;15.93;;;;;;;9.03;100.00;99745.00;5077213;28;20121;-38
2024/03/31 07:28:03;;;;;;;19.27;16.03;;;;;;;9.14;100.00;99754.06;5076871;28;20289;-38
2024/03/31 07:30:28;;;;;;;;;;;;;;;9.26;100.00;99757.44;5077555;28;20298;-39
2024/03/31 07:32:54;;;;;;;16.97;15.17;;;;;;;9.19;100.00;99746.84;5076809;28;19974;-39
2024/03/31 07:35:19;;;;;;;17.73;15.87;;;;;;;9.20;100.00;99747.66;5076997;28;20369;-39
2024/03/31 07:37:45;;;;;;;17.80;16.02;;;;;;;9.21;100.00;99770.84;5076370;28;20043;-39
2024/03/31 07:40:11;;;;;;;18.38;16.48;;;;;;;9.26;100.00;99749.34;5077471;28;20108;-39
2024/03/31 07:42:36;;;;;;;16.00;14.30;;;;;;;9.24;100.00;99733.44;5076379;28;20016;-39
2024/03/31 07:45:03;;;;;;;18.00;15.43;;;;;;;9.38;100.00;99744.66;5076843;28;20024;-38
2024/03/31 07:47:28;;;;;;;17.27;15.38;;;;;;;9.46;100.00;99730.72;5076148;28;20858;-39
2024/03/31 07:49:54;;;;;;;16.05;14.45;;;;;;;9.60;100.00;99749.25;5077011;28;20108;-39
2024/03/31 07:52:19;;;;;;;15.20;13.67;;;;;;;9.59;100.00;99739.53;5076380;28;20025;-39
2024/03/31 07:54:44;;;;;;;15.60;13.83;;;;;;;9.74;100.00;99743.22;5077065;28;20295;-38
2024/03/31 07:57:10;;;;;;;16.30;14.37;;;;;;;9.85;100.00;99738.75;5076930;28;20052;-38
2024/03/31 07:59:35;;;;;;;15.87;14.27;;;;;;;9.93;100.00;99738.31;5076959;28;20020;-39
2024/03/31 08:02:00;;;;;;;15.07;12.43;;;;;;;9.89;100.00;99729.06;5076625;28;20028;-39
2024/03/31 08:04:26;;;;;;;14.07;11.90;;;;;;;9.99;100.00;99733.78;5076054;28;20025;-39
2024/03/31 08:06:51;;;;;;;15.55;12.07;;;;;;;10.11;100.00;99741.75;5076176;28;20029;-39
2024/03/31 08:09:17;;;;;;;16.07;11.90;;;;;;;10.17;100.00;99740.72;5076206;28;20033;-39
2024/03/31 08:11:44;;;;;;;12.40;11.10;;;;;;;10.16;100.00;99739.91;5076491;28;20028;-39
2024/03/31 08:14:09;;;;;;;12.73;11.43;;;;;;;10.25;100.00;99737.59;5076010;28;20024;-39
2024/03/31 08:16:34;;;;;;;12.25;10.88;;;;;;;10.36;100.00;99743.91;5076025;28;20071;-39
2024/03/31 08:19:00;;;;;;;36.07;17.57;;;;;;;10.40;100.00;99736.94;5076285;28;20380;-39
2024/03/31 08:21:25;;;;;;;12.70;10.75;;;;;;;10.33;100.00;99718.19;5075853;28;20761;-39
2024/03/31 08:23:51;;;;;;;11.73;10.13;;;;;;;10.54;100.00;99730.00;5076035;28;20036;-39
2024/03/31 08:26:16;;;;;;;37.25;18.48;;;;;;;10.60;100.00;99728.19;5075605;28;20295;-39
2024/03/31 08:28:41;;;;;;;12.30;9.40;;;;;;;10.53;100.00;99726.47;5076616;28;20372;-39
2024/03/31 08:31:07;;;;;;;11.23;10.03;;;;;;;10.67;100.00;99731.47;5076363;28;20190;-39
2024/03/31 08:33:33;;;;;;;13.20;9.07;;;;;;;10.73;100.00;99733.13;5076199;28;20247;-39
2024/03/31 08:35:58;;;;;;;16.77;9.93;;;;;;;10.75;100.00;99739.91;5075671;28;20392;-39
2024/03/31 08:38:23;;;;;;;11.18;9.23;;;;;;;10.79;100.00;99727.50;5075629;28;20028;-39
2024/03/31 08:41:07;;;;;;;11.37;8.53;;;;;;;10.94;100.00;99729.50;5075364;28;20029;-39
2024/03/31 08:43:38;;;;;;;11.23;9.10;;;;;;;11.02;100.00;99734.41;5075211;28;20400;-39
2024/03/31 08:46:06;;;;;;;13.82;8.80;;;;;;;11.15;100.00;99737.75;5076332;28;20028;-39
2024/03/31 08:48:32;;;;;;;9.93;7.75;;;;;;;11.28;100.00;99731.88;5074568;28;20487;-39
2024/03/31 08:50:57;;;;;;;;;;;;;;;11.52;100.00;99734.97;5075699;28;20380;-39
2024/03/31 08:53:24;;;;;;;10.23;7.20;;;;;;;11.50;100.00;99710.84;5075345;28;19916;-39
2024/03/31 08:55:50;;;;;;;14.85;8.52;;;;;;;11.58;100.00;99714.97;5075310;28;20298;-38
2024/03/31 08:58:16;;;;;;;14.63;8.43;;;;;;;11.63;100.00;99725.00;5074974;28;20036;-38
2024/03/31 09:00:43;;;;;;;10.85;7.38;;;;;;;11.64;100.00;99719.31;5076036;28;20032;-38
2024/03/31 09:03:09;;;;;;;10.50;6.57;;;;;;;11.71;100.00;99716.34;5075431;28;20033;-38
2024/03/31 09:05:35;;;;;;;8.95;6.18;;;;;;;11.83;100.00;99720.50;5075936;28;20025;-38
2024/03/31 09:08:01;;;;;;;9.32;6.35;;;;;;;11.89;100.00;99706.97;5075039;28;20025;-38
2024/03/31 09:10:27;;;;;;;8.40;6.13;;;;;;;11.96;100.00;99708.34;5075104;28;20089;-38
2024/03/31 09:12:52;;;;;;;;;;;;;;;12.08;100.00;99705.38;5075094;28;20032;-38
2024/03/31 09:15:18;;;;;;;8.27;5.67;;;;;;;12.00;100.00;99695.88;5074671;28;20399;-38
2024/03/31 09:17:43;;;;;;;6.57;5.07;;;;;;;12.09;100.00;99702.38;5074942;28;20654;-39
2024/03/31 09:20:09;;;;;;;7.57;4.70;;;;;;;12.19;100.00;99700.78;5075754;28;20032;-39
2024/03/31 09:22:35;;;;;;;9.77;5.05;;;;;;;12.30;100.00;99695.13;5074680;28;20286;-39
2024/03/31 09:25:01;;;;;;;10.23;4.90;;;;;;;12.41;100.00;99687.78;5074694;28;20085;-39
2024/03/31 09:27:27;;;;;;;;;;;;;;;12.58;100.00;99688.31;5074739;28;20107;-39
2024/03/31 09:29:57;;;;;;;7.47;4.35;;;;;;;12.72;100.00;99693.19;5075294;28;19915;-38
2024/03/31 09:32:22;;;;;;;7.95;3.40;;;;;;;12.88;100.00;99686.66;5074810;28;20528;-39
2024/03/31 09:34:48;;;;;;;;;;;;;;;13.06;100.00;99683.34;5074880;28;20115;-39
2024/03/31 09:37:15;;;;;;;9.45;4.03;;;;;;;12.94;100.00;99680.16;5074344;28;20003;-47
2024/03/31 09:39:40;;;;;;;6.45;3.70;;;;;;;12.96;100.00;99683.38;5073664;28;20494;-40
2024/03/31 09:42:06;;;;;;;;;;;;;;;13.19;100.00;99675.75;5074770;28;20025;-39
2024/03/31 09:44:32;;;;;;;6.15;2.90;;;;;;;13.22;100.00;99683.34;5074599;28;19912;-39
2024/03/31 09:46:58;;;;;;;;;;;;;;;13.33;100.00;99690.38;5075175;28;20111;-39
2024/03/31 09:49:33;;;;;;;5.80;2.70;;;;;;;13.12;100.00;99671.41;5074511;28;19913;-39
2024/03/31 09:51:59;;;;;;;8.60;3.15;;;;;;;13.32;100.00;99675.16;5074362;28;20070;-39
2024/03/31 09:54:53;;;;;;;5.15;2.55;;;;;;;13.58;100.00;99681.31;5074460;28;20057;-39
2024/03/31 09:57:26;;;;;;;8.93;2.95;;;;;;;13.81;100.00;99677.09;5073997;28;20021;-39
2024/03/31 09:59:56;;;;;;;7.68;2.75;;;;;;;14.00;100.00;99679.97;5074623;28;20364;-40
2024/03/31 10:02:25;;;;;;;9.38;2.67;;;;;;;14.07;100.00;99680.50;5073844;28;20529;-39
2024/03/31 10:05:01;;;;;;;6.10;2.55;;;;;;;14.20;100.00;99689.91;5074462;28;20029;-40
2024/03/31 10:07:26;;;;;;;9.18;3.42;;;;;;;14.18;100.00;99682.84;5074433;28;20093;-39
2024/03/31 10:09:54;;;;;;;4.90;2.03;;;;;;;14.23;100.00;99686.63;5074672;28;20025;-40
2024/03/31 10:12:20;;;;;;;6.95;2.15;;;;;;;14.25;100.00;99687.97;5073654;28;20075;-40
2024/03/31 10:14:47;;;;;;;6.53;2.00;;;;;;;14.20;100.00;99677.16;5074243;28;20090;-39
2024/03/31 10:17:14;;;;;;;5.53;1.90;;;;;;;14.15;100.00;99679.88;5073960;28;20067;-39
2024/03/31 10:19:41;;;;;;;7.00;2.25;;;;;;;14.27;100.00;99676.81;5073926;28;20079;-39
2024/03/31 10:22:08;;;;;;;6.78;2.17;;;;;;;14.24;100.00;99670.03;5073290;28;20032;-39
2024/03/31 10:24:36;;;;;;;4.10;1.88;;;;;;;14.33;100.00;99681.09;5073570;28;20028;-39
2024/03/31 10:27:04;;;;;;;7.35;2.63;;;;;;;14.50;100.00;99667.97;5073502;28;20025;-39
2024/03/31 10:29:29;;;;;;;6.40;2.00;;;;;;;14.73;100.00;99669.09;5073132;28;20032;-39
2024/03/31 10:31:54;;;;;;;8.32;2.65;;;;;;;14.57;100.00;99656.72;5073492;28;20035;-39
2024/03/31 10:34:20;;;;;;;;;;;;;;;14.75;100.00;99664.19;5073911;28;20119;-39
2024/03/31 10:36:46;;;;;;;8.98;2.20;;;;;;;14.91;100.00;99664.84;5073542;28;19956;-39
2024/03/31 10:39:14;;;;;;;16.13;3.35;;;;;;;15.01;100.00;99653.84;5073719;28;20108;-39
2024/03/31 10:41:40;;;;;;;5.97;1.92;;;;;;;15.17;100.00;99668.88;5073939;28;20082;-39
2024/03/31 10:44:05;;;;;;;4.68;1.50;;;;;;;15.20;100.00;99665.59;5073070;28;20024;-39
2024/03/31 10:46:34;;;;;;;;;;;;;;;15.33;100.00;99660.56;5074036;28;20035;-39
2024/03/31 10:49:00;;;;;;;9.80;1.95;;;;;;;15.32;100.00;99662.44;5073659;28;19912;-39
2024/03/31 10:51:27;;;;;;;6.55;1.80;;;;;;;15.37;100.00;99650.69;5073206;28;20532;-39
2024/03/31 10:53:52;;;;;;;8.18;2.70;;;;;;;15.57;100.00;99649.63;5073003;28;20048;-40
2024/03/31 10:56:26;;;;;;;7.28;1.77;;;;;;;15.63;100.00;99641.13;5073819;28;20032;-40
2024/03/31 10:58:51;;;;;;;6.20;2.35;;;;;;;15.46;100.00;99638.84;5073228;28;20025;-40
2024/03/31 11:01:17;;;;;;;9.07;2.08;;;;;;;15.35;100.00;99642.81;5073160;28;20032;-40
2024/03/31 11:03:45;;;;;;;7.75;1.90;;;;;;;15.19;100.00;99630.50;5073670;28;20025;-39
2024/03/31 11:06:16;;;;;;;6.57;1.92;;;;;;;15.18;100.00;99631.59;5072711;28;20418;-40
2024/03/31 11:08:44;;;;;;;7.28;1.75;;;;;;;15.18;100.00;99634.31;5072945;28;20480;-40
2024/03/31 11:11:11;;;;;;;8.27;1.80;;;;;;;15.22;100.00;99646.25;5073429;28;20024;-40
2024/03/31 11:13:37;;;;;;;7.47;2.58;;;;;;;15.30;100.00;99631.19;5073175;28;20465;-39
2024/03/31 11:16:08;;;;;;;6.00;1.52;;;;;;;15.35;100.00;99637.38;5073698;28;20396;-40